createdAt,value
2023-01-07T00:01:35.298Z,101812.84
2023-01-07T00:04:05.576Z,101683.69
2023-01-07T00:06:35.542Z,101813.72
2023-01-07T00:09:05.295Z,101806.53
2023-01-07T00:11:36.246Z,101779.06
2023-01-07T00:14:06.820Z,101798.03
2023-01-07T00:16:37.707Z,101794.63
2023-01-07T00:19:08.850Z,101791.22
2023-01-07T00:21:37.178Z,101789.78
2023-01-07T00:24:07.226Z,101790.66
2023-01-07T00:26:37.571Z,101758.88
2023-01-07T00:29:07.512Z,101779.34
2023-01-07T00:31:39.557Z,101636.47
2023-01-07T00:34:09.307Z,101783.94
2023-01-07T00:36:41.629Z,101759.00
2023-01-07T00:39:14.152Z,101783.84
2023-01-07T00:42:03.570Z,101776.66
2023-01-07T00:44:32.530Z,101774.09
2023-01-07T00:47:02.635Z,101758.88
2023-01-07T00:49:31.073Z,101772.53
2023-01-07T00:52:00.461Z,101769.97
2023-01-07T00:54:28.911Z,101768.38
2023-01-07T00:56:57.422Z,101772.53
2023-01-07T00:59:25.882Z,101767.41
2023-01-07T01:01:54.197Z,101652.03
2023-01-07T01:04:24.046Z,101760.59
2023-01-07T01:06:52.466Z,101755.47
2023-01-07T01:09:22.521Z,101760.22
2023-01-07T01:11:50.958Z,101753.28
2023-01-07T01:14:19.412Z,101758.75
2023-01-07T01:16:47.896Z,101753.03
2023-01-07T01:19:16.616Z,101746.63
2023-01-07T01:21:46.336Z,101743.69
2023-01-07T01:24:14.991Z,101740.91
2023-01-07T01:26:43.329Z,101735.31
2023-01-07T01:29:11.798Z,101656.56
2023-01-07T01:31:40.366Z,101738.72
2023-01-07T01:34:09.511Z,101743.00
2023-01-07T01:36:38.573Z,101745.56
2023-01-07T01:39:08.496Z,101740.19
2023-01-07T01:41:37.515Z,101747.25
2023-01-07T01:44:44.134Z,101749.19
2023-01-07T01:47:22.047Z,101743.22
2023-01-07T01:49:56.048Z,101755.63
2023-01-07T01:52:31.921Z,101741.41
2023-01-07T01:55:03.101Z,101748.56
2023-01-07T01:57:34.389Z,101721.31
2023-01-07T02:00:06.256Z,101746.03
2023-01-07T02:02:45.785Z,101755.97
2023-01-07T02:05:15.363Z,101748.81
2023-01-07T02:07:43.799Z,101744.31
2023-01-07T02:10:21.262Z,101750.63
2023-01-07T02:13:12.468Z,101737.28
2023-01-07T02:15:52.163Z,101728.63
2023-01-07T02:18:41.640Z,101706.63
2023-01-07T02:21:25.280Z,101732.41
2023-01-07T02:24:25.086Z,101728.50
2023-01-07T02:27:11.681Z,101727.72
2023-01-07T02:30:29.115Z,101722.13
2023-01-07T02:33:23.175Z,101723.56
2023-01-07T02:36:05.799Z,101729.03
2023-01-07T02:38:43.945Z,101692.41
2023-01-07T02:41:21.190Z,101719.03
2023-01-07T02:43:55.725Z,101717.44
2023-01-07T02:46:31.904Z,101712.09
2023-01-07T02:49:05.766Z,101714.28
2023-01-07T02:51:35.547Z,101711.63
2023-01-07T02:54:05.284Z,101702.75
2023-01-07T02:56:46.600Z,101705.16
2023-01-07T02:59:37.992Z,101669.53
2023-01-07T03:02:30.344Z,101687.66
2023-01-07T03:05:13.414Z,101684.59
2023-01-07T03:07:55.019Z,101673.88
2023-01-07T03:10:31.879Z,101643.31
2023-01-07T03:13:05.680Z,101682.63
2023-01-07T03:15:40.529Z,101678.03
2023-01-07T03:18:13.038Z,101669.50
2023-01-07T03:20:45.807Z,101680.44
2023-01-07T03:23:18.148Z,101675.38
2023-01-07T03:25:49.539Z,101682.13
2023-01-07T03:28:25.938Z,101649.88
2023-01-07T03:30:57.929Z,101678.19
2023-01-07T03:33:32.397Z,101672.22
2023-01-07T03:36:07.182Z,101644.13
2023-01-07T03:38:39.305Z,101667.00
2023-01-07T03:41:08.589Z,101660.47
2023-01-07T03:43:35.897Z,101671.03
2023-01-07T03:46:04.809Z,101666.66
2023-01-07T03:48:33.210Z,101660.25
2023-01-07T03:51:03.235Z,101667.28
2023-01-07T03:53:31.675Z,101670.72
2023-01-07T03:56:00.009Z,101665.59
2023-01-07T03:58:28.452Z,101663.25
2023-01-07T04:00:57.022Z,101662.72
2023-01-07T04:03:25.457Z,101656.53
2023-01-07T04:05:53.821Z,101655.78
2023-01-07T04:08:25.643Z,101643.31
2023-01-07T04:10:54.115Z,101645.59
2023-01-07T04:13:23.409Z,101653.72
2023-01-07T04:15:52.526Z,101645.09
2023-01-07T04:18:21.731Z,101644.56
2023-01-07T04:20:50.598Z,101642.22
2023-01-07T04:23:19.748Z,101638.09
2023-01-07T04:25:52.232Z,101637.00
2023-01-07T04:28:24.119Z,101636.28
2023-01-07T04:30:52.851Z,101640.13
2023-01-07T04:33:22.950Z,101635.91
2023-01-07T04:35:51.629Z,101634.09
2023-01-07T04:38:21.875Z,101634.78
2023-01-07T04:40:51.715Z,101628.97
2023-01-07T04:43:20.937Z,101600.75
2023-01-07T04:45:49.758Z,101626.19
2023-01-07T04:48:20.212Z,101626.19
2023-01-07T04:50:52.492Z,101631.84
2023-01-07T04:53:22.412Z,101627.19
2023-01-07T04:55:54.729Z,101606.16
2023-01-07T04:58:23.743Z,101639.66
2023-01-07T05:00:55.499Z,101638.28
2023-01-07T05:03:23.981Z,101641.28
2023-01-07T05:05:53.095Z,101634.28
2023-01-07T05:08:23.542Z,101631.09
2023-01-07T05:10:54.261Z,101636.97
2023-01-07T05:13:24.854Z,101630.16
2023-01-07T05:15:53.622Z,101636.97
2023-01-07T05:18:23.503Z,101633.22
2023-01-07T05:20:53.311Z,101636.09
2023-01-07T05:23:22.747Z,101637.38
2023-01-07T05:25:53.511Z,101634.81
2023-01-07T05:28:23.025Z,101638.66
2023-01-07T05:30:51.380Z,101636.97
2023-01-07T05:33:20.909Z,101636.31
2023-01-07T05:35:49.901Z,101636.53
2023-01-07T05:38:20.363Z,101634.84
2023-01-07T05:40:50.263Z,101635.91
2023-01-07T05:43:24.373Z,101632.00
2023-01-07T05:45:52.918Z,101627.31
2023-01-07T05:48:22.598Z,101619.66
2023-01-07T05:50:51.000Z,101628.50
2023-01-07T05:53:20.274Z,101636.69
2023-01-07T05:55:49.350Z,101626.25
2023-01-07T05:58:17.738Z,101633.50
2023-01-07T06:00:47.547Z,101635.41
2023-01-07T06:03:15.989Z,101639.28
2023-01-07T06:05:44.292Z,101630.75
2023-01-07T06:08:12.664Z,101629.34
2023-01-07T06:10:41.576Z,101627.75
2023-01-07T06:13:10.024Z,101627.31
2023-01-07T06:15:38.436Z,101621.34
2023-01-07T06:18:08.270Z,101629.66
2023-01-07T06:20:36.648Z,101623.50
2023-01-07T06:23:05.132Z,101629.47
2023-01-07T06:25:33.528Z,101626.91
2023-01-07T06:28:01.979Z,101628.41
2023-01-07T06:30:30.346Z,101632.34
2023-01-07T06:32:58.705Z,101627.03
2023-01-07T06:35:28.781Z,101624.91
2023-01-07T06:37:57.164Z,101625.59
2023-01-07T06:40:25.903Z,101629.03
2023-01-07T06:42:54.586Z,101629.88
2023-01-07T06:45:22.996Z,101621.03
2023-01-07T06:47:51.409Z,101627.31
2023-01-07T06:50:19.835Z,101627.31
2023-01-07T06:52:50.648Z,101631.06
2023-01-07T06:55:19.105Z,101633.28
2023-01-07T06:57:48.392Z,101627.63
2023-01-07T07:00:17.153Z,101629.66
2023-01-07T07:02:45.497Z,101622.59
2023-01-07T07:05:14.070Z,101628.34
2023-01-07T07:07:42.441Z,101626.81
2023-01-07T07:10:13.225Z,101581.88
2023-01-07T07:12:41.940Z,101615.25
2023-01-07T07:15:11.012Z,101606.09
2023-01-07T07:17:39.469Z,101613.63
2023-01-07T07:20:08.883Z,101614.38
2023-01-07T07:22:37.339Z,101606.59
2023-01-07T07:25:06.069Z,101604.78
2023-01-07T07:27:35.866Z,101607.13
2023-01-07T07:30:04.928Z,101604.44
2023-01-07T07:32:33.285Z,101619.66
2023-01-07T07:35:01.615Z,101607.06
2023-01-07T07:37:30.086Z,101613.00
2023-01-07T07:39:58.429Z,101614.59
2023-01-07T07:42:26.851Z,101612.44
2023-01-07T07:44:56.690Z,101608.59
2023-01-07T07:47:25.170Z,101615.28
2023-01-07T07:49:53.654Z,101602.69
2023-01-07T07:52:22.033Z,101608.72
2023-01-07T07:54:50.387Z,101604.88
2023-01-07T07:57:18.789Z,101611.59
2023-01-07T07:59:47.114Z,101599.84
2023-01-07T08:02:18.711Z,101598.78
2023-01-07T08:04:47.137Z,101595.88
2023-01-07T08:07:15.518Z,101609.94
2023-01-07T08:10:01.113Z,101607.91
2023-01-07T08:12:29.489Z,101608.38
2023-01-07T08:14:57.855Z,101606.44
2023-01-07T08:17:27.565Z,101615.94
2023-01-07T08:19:55.879Z,101614.97
2023-01-07T08:22:25.292Z,101619.94
2023-01-07T08:24:53.690Z,101622.28
2023-01-07T08:27:22.393Z,101630.78
2023-01-07T08:29:50.781Z,101639.53
2023-01-07T08:32:19.304Z,101633.94
2023-01-07T08:34:49.357Z,101639.53
2023-01-07T08:37:18.597Z,101607.19
2023-01-07T08:39:46.976Z,101640.84
2023-01-07T08:42:15.270Z,101635.41
2023-01-07T08:44:44.106Z,101626.88
2023-01-07T08:47:12.503Z,101636.00
2023-01-07T08:49:40.903Z,101648.28
2023-01-07T08:52:10.751Z,101645.38
2023-01-07T08:54:39.572Z,101638.72
2023-01-07T08:57:07.933Z,101596.53
2023-01-07T08:59:38.794Z,101642.63
2023-01-07T09:02:07.836Z,101646.28
2023-01-07T09:04:36.183Z,101640.78
2023-01-07T09:07:04.576Z,101626.25
2023-01-07T09:09:34.290Z,101633.94
2023-01-07T09:12:02.881Z,101624.00
2023-01-07T09:14:31.221Z,101633.94
2023-01-07T09:16:59.638Z,101636.59
2023-01-07T09:19:28.057Z,101629.91
2023-01-07T09:21:56.813Z,101626.31
2023-01-07T09:24:25.106Z,101621.44
2023-01-07T09:26:55.049Z,101618.03
2023-01-07T09:29:23.337Z,101618.09
2023-01-07T09:31:51.840Z,101624.81
2023-01-07T09:34:20.409Z,101625.56
2023-01-07T09:36:48.801Z,101628.34
2023-01-07T09:39:17.155Z,101626.41
2023-01-07T09:41:52.773Z,101625.78
2023-01-07T09:44:34.795Z,101627.34
2023-01-07T09:47:06.554Z,101631.59
2023-01-07T09:49:35.078Z,101631.47
2023-01-07T09:52:09.901Z,101635.31
2023-01-07T09:54:39.693Z,101633.13
2023-01-07T09:57:09.845Z,101632.16
2023-01-07T09:59:39.560Z,101626.78
2023-01-07T10:02:21.135Z,101622.41
2023-01-07T10:04:58.973Z,101490.75
2023-01-07T10:07:34.685Z,101604.13
2023-01-07T10:10:13.815Z,101629.84
2023-01-07T10:12:52.242Z,101615.31
2023-01-07T10:15:36.924Z,101621.91
2023-01-07T10:18:22.624Z,101617.28
2023-01-07T10:21:00.581Z,101609.97
2023-01-07T10:23:32.136Z,101603.13
2023-01-07T10:26:02.536Z,101569.22
2023-01-07T10:28:38.074Z,101544.81
2023-01-07T10:31:16.522Z,101594.06
2023-01-07T10:33:48.413Z,101563.84
2023-01-07T10:36:24.119Z,101582.81
2023-01-07T10:39:02.459Z,101589.88
2023-01-07T10:41:43.509Z,101560.47
2023-01-07T10:44:39.369Z,101573.03
2023-01-07T10:47:18.329Z,101576.13
2023-01-07T10:50:03.373Z,101550.31
2023-01-07T10:52:41.871Z,101570.00
2023-01-07T10:55:35.880Z,101564.38
2023-01-07T10:58:04.471Z,101563.28
2023-01-07T11:00:33.718Z,101563.59
2023-01-07T11:03:03.606Z,101565.72
2023-01-07T11:05:39.371Z,101535.38
2023-01-07T11:08:15.089Z,101557.59
2023-01-07T11:10:44.064Z,101554.38
2023-01-07T11:13:17.034Z,101529.94
2023-01-07T11:15:50.370Z,101519.53
2023-01-07T11:18:24.775Z,101555.88
2023-01-07T11:20:55.071Z,101533.28
2023-01-07T11:23:31.136Z,101545.47
2023-01-07T11:26:15.158Z,101523.59
2023-01-07T11:28:51.676Z,101526.56
2023-01-07T11:31:20.661Z,101521.19
2023-01-07T11:34:01.903Z,101496.31
2023-01-07T11:36:43.302Z,101504.81
2023-01-07T11:39:13.233Z,101503.13
2023-01-07T11:41:53.003Z,101505.78
2023-01-07T11:44:21.578Z,101500.28
2023-01-07T11:46:50.379Z,101483.50
2023-01-07T11:49:26.787Z,101458.78
2023-01-07T11:51:57.044Z,101482.94
2023-01-07T11:54:27.186Z,101347.78
2023-01-07T11:57:12.966Z,101479.53
2023-01-07T11:59:41.405Z,101468.25
2023-01-07T12:02:26.213Z,101433.25
2023-01-07T12:05:20.183Z,101459.25
2023-01-07T12:07:50.048Z,101456.00
2023-01-07T12:10:31.114Z,101446.53
2023-01-07T12:13:01.052Z,101432.56
2023-01-07T12:15:32.219Z,101427.19
2023-01-07T12:18:34.030Z,101416.75
2023-01-07T12:21:40.571Z,101420.00
2023-01-07T12:24:40.893Z,101409.84
2023-01-07T12:27:20.160Z,101401.09
2023-01-07T12:30:00.096Z,101408.44
2023-01-07T12:32:41.363Z,101378.75
2023-01-07T12:35:18.209Z,101402.78
2023-01-07T12:37:53.826Z,101360.69
2023-01-07T12:40:32.202Z,101385.84
2023-01-07T12:43:06.583Z,101387.09
2023-01-07T12:45:42.098Z,101322.03
2023-01-07T12:48:20.751Z,101364.59
2023-01-07T12:50:53.233Z,101352.25
2023-01-07T12:53:33.049Z,101371.56
2023-01-07T12:56:06.294Z,101365.53
2023-01-07T12:58:45.399Z,101349.16
2023-01-07T13:01:22.409Z,101372.84
2023-01-07T13:04:04.761Z,101342.53
2023-01-07T13:06:44.640Z,101366.91
2023-01-07T13:09:25.695Z,101335.19
2023-01-07T13:12:42.359Z,101353.78
2023-01-07T13:15:20.109Z,101359.84
2023-01-07T13:17:50.387Z,101328.13
2023-01-07T13:20:29.900Z,101339.97
2023-01-07T13:22:59.255Z,101330.78
2023-01-07T13:25:45.363Z,101326.97
2023-01-07T13:28:37.203Z,101321.88
2023-01-07T13:31:17.729Z,101283.78
2023-01-07T13:33:55.792Z,101306.00
2023-01-07T13:36:38.228Z,101306.72
2023-01-07T13:39:34.016Z,101169.16
2023-01-07T13:42:27.987Z,101300.22
2023-01-07T13:45:06.910Z,101306.97
2023-01-07T13:47:44.929Z,101319.97
2023-01-07T13:50:35.911Z,101284.69
2023-01-07T13:53:06.599Z,101295.13
2023-01-07T13:55:38.508Z,101316.84
2023-01-07T13:58:47.480Z,101316.84
2023-01-07T14:01:17.682Z,101319.69
2023-01-07T14:03:50.039Z,101301.59
2023-01-07T14:06:48.951Z,101300.75
2023-01-07T14:09:39.368Z,101301.03
2023-01-07T14:12:45.567Z,101309.66
2023-01-07T14:15:51.436Z,101307.94
2023-01-07T14:18:54.779Z,101316.00
2023-01-07T14:21:54.168Z,101298.84
2023-01-07T14:24:57.921Z,101302.66
2023-01-07T14:27:42.075Z,101292.72
2023-01-07T14:30:21.672Z,101293.56
2023-01-07T14:33:00.652Z,101292.78
2023-01-07T14:35:34.229Z,101285.72
2023-01-07T14:38:03.007Z,101290.81
2023-01-07T14:41:03.038Z,101261.94
2023-01-07T14:44:22.468Z,101287.34
2023-01-07T14:46:53.185Z,101291.16
2023-01-07T14:49:50.771Z,101290.03
2023-01-07T14:52:51.065Z,101290.19
2023-01-07T14:55:43.495Z,101255.63
2023-01-07T14:58:35.245Z,101276.59
2023-01-07T15:01:30.689Z,101275.63
2023-01-07T15:04:32.881Z,101278.81
2023-01-07T15:07:04.871Z,101276.59
2023-01-07T15:09:59.829Z,101280.97
2023-01-07T15:12:48.977Z,101279.28
2023-01-07T15:15:40.796Z,101288.19
2023-01-07T15:18:10.253Z,101274.63
2023-01-07T15:20:56.694Z,101272.78
2023-01-07T15:23:31.894Z,101280.00
2023-01-07T15:26:08.472Z,101289.41
2023-01-07T15:28:48.430Z,101289.81
2023-01-07T15:31:25.709Z,101293.03
2023-01-07T15:34:10.809Z,101176.31
2023-01-07T15:36:43.486Z,101278.78
2023-01-07T15:39:21.731Z,101169.47
2023-01-07T15:41:53.789Z,101274.41
2023-01-07T15:44:29.071Z,101280.75
2023-01-07T15:46:57.890Z,101272.84
2023-01-07T15:49:28.001Z,101165.59
2023-01-07T15:51:59.809Z,101264.25
2023-01-07T15:54:33.079Z,101251.16
2023-01-07T15:57:06.515Z,101243.69
2023-01-07T15:59:38.366Z,101254.72
2023-01-07T16:02:18.461Z,101255.03
2023-01-07T16:04:49.406Z,101245.28
2023-01-07T16:07:23.657Z,101208.09
2023-01-07T16:09:54.327Z,101239.06
2023-01-07T16:12:30.136Z,101244.00
2023-01-07T16:14:59.854Z,101244.97
2023-01-07T16:17:28.730Z,101234.28
2023-01-07T16:20:20.099Z,101246.28
2023-01-07T16:22:48.511Z,101246.72
2023-01-07T16:25:26.725Z,101223.22
2023-01-07T16:27:55.748Z,101240.09
2023-01-07T16:30:24.912Z,101255.22
2023-01-07T16:32:56.109Z,101265.09
2023-01-07T16:35:32.099Z,101242.28
2023-01-07T16:38:03.445Z,101258.19
2023-01-07T16:40:37.653Z,101249.47
2023-01-07T16:43:20.542Z,101249.47
2023-01-07T16:46:10.575Z,101256.13
2023-01-07T16:48:39.732Z,101248.38
2023-01-07T16:51:36.678Z,101251.03
2023-01-07T16:54:41.673Z,101251.47
2023-01-07T16:57:31.345Z,101244.56
2023-01-07T17:00:07.026Z,101244.88
2023-01-07T17:02:40.573Z,101258.97
2023-01-07T17:05:18.750Z,101247.25
2023-01-07T17:07:53.611Z,101234.13
2023-01-07T17:10:27.261Z,101231.75
2023-01-07T17:13:02.938Z,101249.38
2023-01-07T17:15:39.649Z,101241.78
2023-01-07T17:18:30.050Z,101250.81
2023-01-07T17:21:00.187Z,101241.53
2023-01-07T17:23:45.883Z,101241.78
2023-01-07T17:26:21.874Z,101234.19
2023-01-07T17:28:54.086Z,101207.84
2023-01-07T17:31:24.160Z,101229.69
2023-01-07T17:33:53.440Z,101246.44
2023-01-07T17:36:24.151Z,101251.66
2023-01-07T17:38:54.086Z,101234.84
2023-01-07T17:41:42.531Z,101234.72
2023-01-07T17:44:14.566Z,101232.34
2023-01-07T17:46:47.467Z,101225.19
2023-01-07T17:49:17.098Z,101205.59
2023-01-07T17:51:48.164Z,101231.50
2023-01-07T17:54:22.202Z,101228.66
2023-01-07T17:56:51.042Z,101227.00
2023-01-07T17:59:22.996Z,101091.31
2023-01-07T18:01:52.801Z,101206.25
2023-01-07T18:04:21.636Z,101217.00
2023-01-07T18:06:49.945Z,101218.53
2023-01-07T18:09:18.350Z,101226.44
2023-01-07T18:12:05.069Z,101181.66
2023-01-07T18:14:34.985Z,101226.28
2023-01-07T18:17:03.377Z,101243.91
2023-01-07T18:19:31.861Z,101235.84
2023-01-07T18:22:00.292Z,101239.69
2023-01-07T18:24:28.604Z,101234.00
2023-01-07T18:26:57.031Z,101235.56
2023-01-07T18:29:26.853Z,101224.31
2023-01-07T18:31:57.503Z,101228.34
2023-01-07T18:34:26.218Z,101233.88
2023-01-07T18:36:54.977Z,101249.13
2023-01-07T18:39:23.692Z,101265.91
2023-01-07T18:41:54.108Z,101266.06
2023-01-07T18:44:24.392Z,101271.28
2023-01-07T18:46:54.251Z,101276.50
2023-01-07T18:49:24.372Z,101277.34
2023-01-07T18:51:52.912Z,101282.31
2023-01-07T18:54:21.900Z,101280.31
2023-01-07T18:56:51.122Z,101286.38
2023-01-07T18:59:19.740Z,101285.69
2023-01-07T19:01:48.774Z,101287.38
2023-01-07T19:04:17.441Z,101275.09
2023-01-07T19:06:50.766Z,101265.34
2023-01-07T19:09:19.874Z,101264.84
2023-01-07T19:11:52.626Z,101257.22
2023-01-07T19:14:21.300Z,101253.84
2023-01-07T19:16:51.070Z,101248.63
2023-01-07T19:19:19.712Z,101239.88
2023-01-07T19:21:50.884Z,101235.78
2023-01-07T19:24:19.527Z,101254.84
2023-01-07T19:26:48.584Z,101242.72
2023-01-07T19:29:17.816Z,101239.31
2023-01-07T19:31:46.962Z,101229.78
2023-01-07T19:34:17.431Z,101206.94
2023-01-07T19:36:47.298Z,101223.00
2023-01-07T19:39:18.999Z,101256.59
2023-01-07T19:41:48.145Z,101257.72
2023-01-07T19:44:17.680Z,101255.03
2023-01-07T19:46:47.026Z,101260.69
2023-01-07T19:49:15.548Z,101252.22
2023-01-07T19:51:44.357Z,101245.44
2023-01-07T19:54:16.571Z,101246.72
2023-01-07T19:56:47.026Z,101251.53
2023-01-07T19:59:15.621Z,101245.75
2023-01-07T20:01:45.345Z,101257.72
2023-01-07T20:04:13.725Z,101242.63
2023-01-07T20:06:42.043Z,101250.09
2023-01-07T20:09:11.674Z,101243.34
2023-01-07T20:11:40.681Z,101250.66
2023-01-07T20:14:10.746Z,101245.31
2023-01-07T20:16:41.621Z,101241.78
2023-01-07T20:19:12.445Z,101131.47
2023-01-07T20:21:41.185Z,101228.97
2023-01-07T20:24:10.318Z,101223.75
2023-01-07T20:26:39.165Z,101221.38
2023-01-07T20:29:07.501Z,101231.78
2023-01-07T20:31:37.463Z,101236.00
2023-01-07T20:34:05.934Z,101236.59
2023-01-07T20:36:34.455Z,101224.47
2023-01-07T20:39:05.935Z,101212.88
2023-01-07T20:41:36.007Z,101210.38
2023-01-07T20:44:06.324Z,101214.28
2023-01-07T20:46:36.507Z,101209.34
2023-01-07T20:49:04.909Z,101202.44
2023-01-07T20:51:34.066Z,101197.63
2023-01-07T20:54:02.509Z,101190.88
2023-01-07T20:56:32.487Z,101188.31
2023-01-07T20:59:02.386Z,101166.66
2023-01-07T21:01:30.938Z,101149.44
2023-01-07T21:04:01.940Z,101150.00
2023-01-07T21:06:30.384Z,101146.31
2023-01-07T21:08:58.695Z,101153.47
2023-01-07T21:11:27.545Z,101163.47
2023-01-07T21:13:56.544Z,101146.72
2023-01-07T21:16:25.667Z,101115.72
2023-01-07T21:18:54.144Z,101104.47
2023-01-07T21:21:25.553Z,101113.59
2023-01-07T21:23:54.830Z,101133.88
2023-01-07T21:26:24.983Z,101142.63
2023-01-07T21:28:56.220Z,101139.66
2023-01-07T21:31:25.387Z,101121.78
2023-01-07T21:33:56.557Z,101124.75
2023-01-07T21:36:27.097Z,101123.03
2023-01-07T21:38:57.163Z,101108.66
2023-01-07T21:41:26.661Z,101122.63
2023-01-07T21:43:55.632Z,101135.47
2023-01-07T21:46:24.161Z,101136.19
2023-01-07T21:48:53.028Z,101134.66
2023-01-07T21:51:26.454Z,101117.59
2023-01-07T21:53:56.695Z,101126.88
2023-01-07T21:56:26.797Z,101161.41
2023-01-07T21:58:55.302Z,101161.97
2023-01-07T22:01:28.442Z,101172.28
2023-01-07T22:03:58.948Z,101184.41
2023-01-07T22:06:30.974Z,101190.28
2023-01-07T22:09:00.676Z,101186.75
2023-01-07T22:11:29.776Z,101191.00
2023-01-07T22:13:59.883Z,101198.91
2023-01-07T22:16:30.396Z,101200.59
2023-01-07T22:18:59.234Z,101190.16
2023-01-07T22:21:29.207Z,101179.44
2023-01-07T22:23:57.581Z,101187.63
2023-01-07T22:26:25.989Z,101184.09
2023-01-07T22:28:56.161Z,101183.97
2023-01-07T22:31:26.675Z,101150.44
2023-01-07T22:33:55.462Z,101168.88
2023-01-07T22:36:30.342Z,101171.41
2023-01-07T22:39:03.979Z,101170.44
2023-01-07T22:41:34.061Z,101175.78
2023-01-07T22:44:05.517Z,101160.16
2023-01-07T22:46:35.463Z,101180.88
2023-01-07T22:49:03.917Z,101164.94
2023-01-07T22:51:38.740Z,101147.78
2023-01-07T22:54:09.494Z,101143.13
2023-01-07T22:56:37.907Z,101132.97
2023-01-07T22:59:06.275Z,101120.16
2023-01-07T23:01:43.561Z,101114.81
2023-01-07T23:04:18.612Z,101101.84
2023-01-07T23:06:47.144Z,101091.44
2023-01-07T23:09:16.816Z,101043.28
2023-01-07T23:11:51.840Z,101087.78
2023-01-07T23:14:22.760Z,101102.13
2023-01-07T23:16:52.734Z,101117.38
2023-01-07T23:19:22.490Z,101123.84
2023-01-07T23:21:52.712Z,101112.28
2023-01-07T23:24:23.764Z,101091.03
2023-01-07T23:26:54.002Z,101078.63
2023-01-07T23:29:22.835Z,101080.75
2023-01-07T23:31:51.398Z,101082.56
2023-01-07T23:34:19.816Z,101080.44
2023-01-07T23:36:49.090Z,101067.19
2023-01-07T23:39:17.654Z,101068.44
2023-01-07T23:41:47.420Z,101063.66
2023-01-07T23:44:17.434Z,101049.97
2023-01-07T23:46:45.816Z,101051.66
2023-01-07T23:49:14.197Z,101054.22
2023-01-07T23:51:42.906Z,101043.50
2023-01-07T23:54:11.521Z,101030.41
2023-01-07T23:56:40.094Z,101018.44
2023-01-07T23:59:10.111Z,100998.47
